Time;durP1;ratioP1;P1;durP2;ratioP2;P2;SDS_P1;SDS_P2;PMS_P1;PMS_P2;Temp;Humidity;BMP_temperature;BMP_pressure;BME280_temperature;BME280_humidity;BME280_pressure;Samples;Min_cycle;Max_cycle;Signal;HPM_P1;HPM_P2
2023/06/12 00:03:59;;;;;;;5.30;3.90;;;;;;;13.88;71.10;100586.13;176679;1295;43129;-61
2023/06/12 00:08:05;;;;;;;4.30;2.60;;;;;;;13.92;71.26;100583.05;176777;1296;43779;-61
2023/06/12 00:12:09;;;;;;;4.10;3.10;;;;;;;13.90;72.36;100583.62;176828;1295;43096;-61
2023/06/12 00:16:12;;;;;;;9.20;4.10;;;;;;;13.84;73.56;100585.72;176945;1295;58369;-63
2023/06/12 00:20:15;;;;;;;3.80;2.80;;;;;;;13.77;74.71;100587.61;176436;1298;43127;-61
2023/06/12 00:24:19;;;;;;;11.70;4.60;;;;;;;13.73;77.04;100586.38;176055;1303;44016;-63
2023/06/12 00:28:22;;;;;;;4.40;3.10;;;;;;;13.69;78.33;100586.59;175171;1309;43792;-62
2023/06/12 00:32:25;;;;;;;6.30;4.40;;;;;;;13.67;78.21;100587.32;175053;1312;43050;-61
2023/06/12 00:36:29;;;;;;;4.90;3.60;;;;;;;13.69;79.51;100590.14;175070;1308;59188;-61
2023/06/12 00:40:32;;;;;;;5.70;3.70;;;;;;;13.68;79.35;100586.84;175144;1309;43446;-62
2023/06/12 00:44:35;;;;;;;6.40;4.70;;;;;;;13.68;78.05;100591.65;175229;1308;43081;-61
2023/06/12 00:48:40;;;;;;;7.60;4.20;;;;;;;13.69;77.51;100591.38;175162;1308;43544;-61
2023/06/12 00:52:48;;;;;;;6.80;3.90;;;;;;;13.65;78.68;100599.77;175103;1308;43826;-61
2023/06/12 00:56:52;;;;;;;6.60;4.10;;;;;;;13.63;78.66;100599.95;174691;1308;58286;-62
2023/06/12 01:00:56;;;;;;;4.10;3.30;;;;;;;13.61;78.62;100600.81;174946;1308;43977;-62
2023/06/12 01:04:59;;;;;;;5.30;2.40;;;;;;;13.54;79.08;100598.60;175187;1308;43085;-61
2023/06/12 01:09:48;;;;;;;4.50;2.40;;;;;;;13.46;80.15;100597.83;175026;1308;43139;-61
2023/06/12 01:13:52;;;;;;;10.50;4.20;;;;;;;13.34;81.38;100595.68;173093;1318;43067;-61
2023/06/12 01:17:58;;;;;;;5.70;3.20;;;;;;;13.26;81.69;100601.86;173110;1322;57990;-61
2023/06/12 01:22:08;;;;;;;5.20;2.90;;;;;;;13.16;82.73;100597.59;173207;1318;43814;-61
2023/06/12 01:26:56;;;;;;;6.30;4.00;;;;;;;13.12;83.06;100597.96;173116;1322;43589;-62
2023/06/12 01:31:13;;;;;;;;;;;;;;;13.16;83.00;100604.40;171755;1332;43205;-61
2023/06/12 01:35:23;;;;;;;7.20;4.00;;;;;;;13.11;83.45;100600.89;171791;1330;43576;-61
2023/06/12 01:39:30;;;;;;;5.50;2.80;;;;;;;12.99;82.70;100603.38;171669;1333;59641;-61
2023/06/12 01:43:35;;;;;;;4.60;3.30;;;;;;;12.94;82.31;100600.70;171703;1330;43834;-61
2023/06/12 01:47:38;;;;;;;4.60;3.00;;;;;;;12.91;82.58;100600.67;172408;1324;43081;-61
2023/06/12 01:51:41;;;;;;;3.20;2.70;;;;;;;12.89;82.37;100598.50;172428;1324;43775;-62
2023/06/12 01:55:44;;;;;;;6.20;4.00;;;;;;;12.88;82.37;100605.55;172475;1324;43081;-62
2023/06/12 01:59:48;;;;;;;6.80;3.50;;;;;;;12.85;82.17;100602.09;172391;1324;57986;-61
2023/06/12 02:04:01;;;;;;;4.30;2.70;;;;;;;12.77;82.64;100604.92;172201;1324;208084;-61
2023/06/12 02:08:04;;;;;;;4.10;3.30;;;;;;;12.62;82.63;100605.82;172321;1327;43229;-61
2023/06/12 02:12:07;;;;;;;3.60;3.00;;;;;;;12.46;83.50;100613.73;172152;1330;43749;-62
2023/06/12 02:16:10;;;;;;;4.50;3.10;;;;;;;12.33;85.16;100611.81;171977;1330;43785;-61
2023/06/12 02:20:16;;;;;;;3.70;3.40;;;;;;;12.20;85.84;100598.84;171902;1331;58401;-61
2023/06/12 02:28:25;;;;;;;5.30;3.80;;;;;;;12.16;86.73;100592.40;175287;1287;566727;-89
2023/06/12 02:32:29;;;;;;;4.50;3.40;;;;;;;12.11;88.31;100596.02;178951;1264;57914;-88
2023/06/12 02:36:39;;;;;;;4.80;4.30;;;;;;;12.13;88.29;100595.27;178633;1268;46454;-89
2023/06/12 02:40:43;;;;;;;10.40;4.10;;;;;;;12.20;87.63;100598.13;179340;1256;416601;-89
2023/06/12 02:44:47;;;;;;;6.60;3.20;;;;;;;12.31;86.71;100600.80;179940;1256;44714;-89
2023/06/12 02:48:50;;;;;;;5.30;2.20;;;;;;;12.34;86.37;100601.03;179484;1258;44715;-90
2023/06/12 02:52:54;;;;;;;5.40;3.40;;;;;;;12.31;86.54;100604.17;179368;1255;59276;-89
2023/06/12 02:56:58;;;;;;;6.50;2.90;;;;;;;12.31;86.72;100607.90;179273;1256;46032;-90
2023/06/12 03:01:04;;;;;;;4.30;3.50;;;;;;;12.31;86.68;100611.77;180214;1258;51354;-91
2023/06/12 03:05:15;;;;;;;6.20;4.40;;;;;;;12.28;87.01;100608.98;180030;1256;46024;-91
2023/06/12 03:09:23;;;;;;;5.60;3.40;;;;;;;12.24;87.71;100612.39;180069;1257;46009;-90
2023/06/12 03:13:27;;;;;;;7.40;3.90;;;;;;;12.15;88.45;100617.86;180368;1256;60162;-89
2023/06/12 03:17:32;;;;;;;5.30;3.80;;;;;;;12.11;89.03;100618.78;179886;1256;46076;-90
2023/06/12 03:21:37;;;;;;;10.20;4.40;;;;;;;12.15;89.69;100624.27;180090;1256;46010;-89
2023/06/12 03:25:41;;;;;;;4.50;4.00;;;;;;;12.24;89.88;100626.94;180096;1257;44688;-90
2023/06/12 03:29:45;;;;;;;8.10;3.60;;;;;;;12.28;90.22;100631.18;180037;1256;45935;-89
2023/06/12 03:33:49;;;;;;;5.40;4.00;;;;;;;12.37;91.32;100632.95;179995;1256;57887;-89
2023/06/12 03:37:53;;;;;;;5.00;4.10;;;;;;;12.46;91.58;100635.46;180504;1250;46014;-90
2023/06/12 03:41:57;;;;;;;10.20;4.70;;;;;;;12.61;92.27;100637.88;180459;1251;45445;-90
2023/06/12 03:46:01;;;;;;;7.20;4.50;;;;;;;12.73;91.92;100642.20;180808;1250;44750;-87
2023/06/12 03:50:09;;;;;;;5.20;3.50;;;;;;;12.84;92.88;100643.80;180897;1250;46063;-90
2023/06/12 03:54:14;;;;;;;6.00;4.10;;;;;;;12.95;93.20;100649.08;180071;1251;58409;-89
2023/06/12 03:58:18;;;;;;;46.70;10.00;;;;;;;13.05;93.66;100653.09;179855;1256;45968;-90
2023/06/12 04:02:23;;;;;;;54.10;13.50;;;;;;;13.22;93.42;100660.85;180588;1251;45919;-91
2023/06/12 04:06:32;;;;;;;5.10;4.30;;;;;;;13.38;93.11;100661.82;180757;1251;45911;-90
2023/06/12 04:10:36;;;;;;;4.20;3.90;;;;;;;13.41;93.94;100662.42;180746;1253;45948;-90
2023/06/12 04:14:41;;;;;;;5.90;3.50;;;;;;;13.60;94.39;100669.88;180655;1251;59487;-89
2023/06/12 04:18:45;;;;;;;5.80;3.20;;;;;;;13.90;94.80;100664.59;180608;1251;44567;-91
2023/06/12 04:22:56;;;;;;;7.70;4.60;;;;;;;14.41;95.86;100660.11;179997;1251;44005;-89
2023/06/12 04:27:29;;;;;;;4.90;4.00;;;;;;;15.31;94.95;100669.14;181432;1250;85587;-62
2023/06/12 04:31:35;;;;;;;7.00;5.10;;;;;;;16.71;96.31;100664.91;179888;1260;45976;-90
2023/06/12 04:35:39;;;;;;;7.80;4.10;;;;;;;18.21;90.37;100661.39;179533;1260;59485;-90
2023/06/12 04:39:45;;;;;;;8.70;4.40;;;;;;;19.31;79.44;100664.93;179936;1260;45860;-89
2023/06/12 04:43:49;;;;;;;13.50;6.60;;;;;;;20.25;75.52;100677.28;179754;1260;44712;-91
2023/06/12 04:47:53;;;;;;;7.50;6.30;;;;;;;21.56;69.46;100682.48;180059;1260;45875;-90
2023/06/12 04:51:58;;;;;;;6.90;6.20;;;;;;;22.68;64.64;100684.91;179832;1260;46022;-88
2023/06/12 04:56:05;;;;;;;5.80;5.20;;;;;;;23.54;60.59;100684.30;179689;1263;58228;-89
2023/06/12 05:00:13;;;;;;;7.60;6.20;;;;;;;24.24;58.23;100691.23;180066;1260;45288;-90
2023/06/12 05:04:18;;;;;;;8.00;6.00;;;;;;;24.73;56.36;100690.05;179797;1259;44589;-90
2023/06/12 05:08:24;;;;;;;7.60;5.80;;;;;;;24.94;55.05;100686.20;179767;1259;44672;-90
2023/06/12 05:12:29;;;;;;;7.30;5.20;;;;;;;25.01;55.21;100684.26;179703;1261;45096;-90
2023/06/12 05:16:34;;;;;;;9.00;6.30;;;;;;;25.40;56.06;100680.45;179746;1260;57949;-87
2023/06/12 05:20:41;;;;;;;6.20;5.50;;;;;;;25.90;55.22;100675.82;179638;1260;46023;-89
2023/06/12 05:24:45;;;;;;;10.60;5.40;;;;;;;26.30;54.16;100678.91;179482;1259;46066;-91
2023/06/12 05:28:50;;;;;;;6.90;6.00;;;;;;;26.14;53.92;100677.05;179833;1259;46214;-91
2023/06/12 05:32:57;;;;;;;8.30;5.60;;;;;;;25.95;54.73;100674.08;179971;1260;46224;-91
2023/06/12 05:37:07;;;;;;;7.60;5.10;;;;;;;26.22;54.52;100679.00;179783;1260;59994;-90
2023/06/12 05:41:23;;;;;;;6.30;5.60;;;;;;;26.24;54.98;100679.20;179768;1260;46335;-90
2023/06/12 05:45:27;;;;;;;;;;;;;;;26.21;56.03;100682.07;179746;1260;44638;-88
2023/06/12 05:49:38;;;;;;;6.60;5.90;;;;;;;26.20;56.68;100692.02;179800;1262;45759;-90
2023/06/12 05:53:49;;;;;;;7.90;5.50;;;;;;;25.69;56.21;100694.33;179664;1262;44274;-89
2023/06/12 05:57:56;;;;;;;6.80;5.60;;;;;;;25.12;57.72;100698.30;179549;1262;59626;-90
2023/06/12 06:02:00;;;;;;;6.30;5.60;;;;;;;24.79;58.60;100699.46;179549;1261;46039;-90
2023/06/12 06:06:05;;;;;;;11.10;6.00;;;;;;;24.56;58.79;100700.13;179699;1262;44841;-90
2023/06/12 06:10:10;;;;;;;7.90;6.20;;;;;;;24.29;58.92;100707.92;179487;1261;44834;-88
2023/06/12 06:14:18;;;;;;;8.30;5.80;;;;;;;24.04;60.08;100705.48;179475;1261;44106;-90
2023/06/12 06:18:23;;;;;;;9.70;5.90;;;;;;;23.94;61.44;100703.51;179355;1263;58174;-90
2023/06/12 06:22:28;;;;;;;10.20;5.60;;;;;;;24.07;61.83;100706.58;179682;1262;45599;-87
2023/06/12 06:26:33;;;;;;;5.90;5.20;;;;;;;24.12;60.83;100704.42;179488;1262;44006;-89
2023/06/12 06:30:38;;;;;;;9.60;5.20;;;;;;;24.30;60.64;100703.95;179385;1262;46134;-89
2023/06/12 06:34:43;;;;;;;4.90;4.50;;;;;;;24.30;61.31;100710.73;179684;1262;44032;-91
2023/06/12 06:38:48;;;;;;;9.70;5.50;;;;;;;24.36;60.71;100711.86;179523;1262;60458;-90
2023/06/12 06:42:54;;;;;;;6.90;4.80;;;;;;;24.37;60.93;100714.87;179465;1262;46215;-90
2023/06/12 06:46:59;;;;;;;5.90;5.30;;;;;;;24.37;60.31;100717.90;179376;1262;46075;-89
2023/06/12 06:51:03;;;;;;;5.00;4.50;;;;;;;24.23;60.76;100715.23;179420;1262;46173;-89
2023/06/12 06:55:08;;;;;;;5.20;4.30;;;;;;;24.05;59.71;100715.14;179247;1262;46134;-90
2023/06/12 06:59:13;;;;;;;5.80;4.60;;;;;;;23.90;61.97;100714.94;179352;1260;61632;-89
2023/06/12 07:03:17;;;;;;;9.40;5.00;;;;;;;23.95;62.39;100715.73;179413;1261;44728;-89
2023/06/12 07:07:21;;;;;;;7.40;5.40;;;;;;;23.96;61.86;100716.81;179569;1263;45895;-90
2023/06/12 07:11:26;;;;;;;6.60;4.00;;;;;;;24.22;61.84;100719.91;179327;1261;45966;-90
2023/06/12 07:15:31;;;;;;;6.20;4.20;;;;;;;24.27;60.11;100717.04;179381;1262;45290;-91
2023/06/12 07:19:35;;;;;;;6.70;3.90;;;;;;;24.16;59.06;100717.65;179692;1261;57925;-90
2023/06/12 07:23:42;;;;;;;9.60;4.40;;;;;;;24.08;57.83;100717.80;179681;1261;45267;-91
2023/06/12 07:27:50;;;;;;;4.60;3.80;;;;;;;24.17;58.38;100711.91;179695;1261;45988;-90
2023/06/12 07:31:54;;;;;;;8.60;3.80;;;;;;;24.26;58.10;100707.63;179593;1260;47190;-89
2023/06/12 07:35:59;;;;;;;4.40;4.00;;;;;;;24.29;57.25;100709.55;179563;1261;46070;-89
2023/06/12 07:40:10;;;;;;;4.30;3.20;;;;;;;24.49;56.86;100703.31;179785;1260;60094;-88
2023/06/12 07:44:15;;;;;;;3.70;2.90;;;;;;;24.57;54.82;100700.59;179367;1261;44542;-88
2023/06/12 07:48:19;;;;;;;4.80;3.30;;;;;;;24.33;54.13;100703.50;179322;1262;45944;-91
2023/06/12 07:52:24;;;;;;;6.10;2.80;;;;;;;24.02;55.20;100699.23;179438;1260;45998;-89
2023/06/12 07:56:30;;;;;;;5.40;4.20;;;;;;;24.21;56.32;100699.79;179468;1261;46141;-91
2023/06/12 08:00:35;;;;;;;10.30;3.50;;;;;;;24.04;54.03;100698.88;179794;1261;58082;-89
2023/06/12 08:04:42;;;;;;;3.40;2.50;;;;;;;23.58;51.84;100696.07;179456;1262;45915;-90
2023/06/12 08:08:50;;;;;;;4.80;2.20;;;;;;;23.04;52.38;100704.01;179531;1260;46227;-89
2023/06/12 08:12:56;;;;;;;4.60;2.70;;;;;;;22.94;52.99;100702.48;179506;1261;45927;-90
2023/06/12 08:17:07;;;;;;;5.90;2.90;;;;;;;23.26;52.92;100696.35;179414;1262;46187;-89
2023/06/12 08:21:12;;;;;;;4.50;2.00;;;;;;;23.69;47.84;100693.86;179739;1261;58003;-90
2023/06/12 08:25:16;;;;;;;3.60;1.90;;;;;;;23.68;46.57;100694.10;179660;1260;46044;-89
2023/06/12 08:29:21;;;;;;;4.80;2.70;;;;;;;23.67;46.77;100695.48;179846;1260;44547;-89
2023/06/12 08:33:32;;;;;;;2.20;1.70;;;;;;;23.83;47.10;100691.48;179974;1260;44769;-90
2023/06/12 08:37:37;;;;;;;4.50;2.50;;;;;;;24.18;46.88;100695.10;180143;1262;46033;-90
2023/06/12 08:46:03;;;;;;;2.90;1.60;;;;;;;24.19;44.32;100687.77;180076;1260;44249;-86
2023/06/12 08:50:11;;;;;;;6.50;2.40;;;;;;;24.28;44.69;100685.80;179842;1260;46092;-89
2023/06/12 08:54:18;;;;;;;2.80;1.90;;;;;;;24.02;43.98;100681.30;179727;1260;45324;-88
2023/06/12 08:58:23;;;;;;;3.30;2.30;;;;;;;23.81;45.53;100685.70;180027;1260;45985;-90
2023/06/12 09:07:01;;;;;;;2.90;2.10;;;;;;;23.25;47.08;100680.18;179564;1263;44494;-89
2023/06/12 09:11:05;;;;;;;4.90;3.10;;;;;;;23.18;48.16;100673.00;179518;1263;45927;-90
2023/06/12 09:15:15;;;;;;;5.20;1.90;;;;;;;23.05;47.60;100674.80;179710;1263;44769;-90
2023/06/12 09:19:18;;;;;;;4.00;1.90;;;;;;;23.13;47.39;100668.59;179557;1262;46072;-89
2023/06/12 09:23:22;;;;;;;3.20;2.00;;;;;;;23.29;47.15;100669.16;179644;1262;57809;-91
2023/06/12 09:27:26;;;;;;;3.50;3.20;;;;;;;23.27;47.07;100670.38;179820;1264;45987;-86
2023/06/12 09:31:35;;;;;;;3.40;2.40;;;;;;;23.53;47.34;100670.66;179982;1262;44185;-87
2023/06/12 09:35:52;;;;;;;2.20;1.70;;;;;;;23.95;46.04;100666.58;179919;1263;44530;-88
2023/06/12 09:40:16;;;;;;;2.90;2.40;;;;;;;24.13;45.75;100669.85;179747;1263;46004;-87
2023/06/12 09:44:28;;;;;;;4.40;2.00;;;;;;;24.06;44.97;100665.06;179720;1262;59399;-89
2023/06/12 09:48:36;;;;;;;5.10;2.40;;;;;;;24.04;45.33;100661.60;179652;1263;44345;-90
2023/06/12 09:52:58;;;;;;;3.60;1.40;;;;;;;23.95;45.89;100656.04;179933;1262;46035;-88
2023/06/12 09:57:06;;;;;;;;;;;;;;;23.85;47.91;100656.60;179935;1266;45089;-88
2023/06/12 10:01:10;;;;;;;3.20;2.10;;;;;;;23.77;48.05;100657.20;179701;1266;43955;-88
2023/06/12 10:05:23;;;;;;;4.20;2.40;;;;;;;23.69;48.16;100658.10;179650;1262;59580;-87
2023/06/12 10:09:31;;;;;;;4.00;2.30;;;;;;;23.76;47.91;100650.81;179866;1262;44793;-87
2023/06/12 10:13:39;;;;;;;5.50;2.00;;;;;;;23.96;46.93;100644.59;179849;1262;44664;-89
2023/06/12 10:17:51;;;;;;;2.80;2.20;;;;;;;24.07;45.29;100640.04;179804;1262;46144;-90
2023/06/12 10:21:56;;;;;;;3.00;1.70;;;;;;;24.06;46.08;100640.70;179613;1262;44035;-90
2023/06/12 10:26:02;;;;;;;5.00;2.50;;;;;;;23.77;48.05;100639.06;179983;1262;60042;-90
2023/06/12 10:30:20;;;;;;;4.50;2.50;;;;;;;23.81;48.16;100634.91;179926;1264;45868;-90
2023/06/12 10:34:34;;;;;;;3.40;2.50;;;;;;;24.00;46.47;100628.30;179881;1261;45953;-90
2023/06/12 11:17:36;;;;;;;9.30;2.30;;;;;;;24.39;47.35;100594.23;180291;1257;60179;-63
2023/06/12 11:21:41;;;;;;;4.10;2.90;;;;;;;24.43;47.25;100584.90;180211;1262;44989;-63
2023/06/12 11:25:47;;;;;;;4.70;2.60;;;;;;;24.60;47.39;100569.09;180079;1259;45961;-63
2023/06/12 11:29:51;;;;;;;2.90;2.00;;;;;;;24.79;46.09;100562.09;180360;1260;44977;-63
2023/06/12 11:34:12;;;;;;;5.30;2.10;;;;;;;24.90;43.66;100555.23;180082;1259;44578;-64
2023/06/12 11:38:21;;;;;;;6.50;2.40;;;;;;;25.11;44.70;100548.71;180181;1259;58751;-63
2023/06/12 11:42:55;;;;;;;5.20;2.50;;;;;;;25.41;44.72;100544.38;179628;1263;43883;-63
2023/06/12 11:47:00;;;;;;;4.30;2.50;;;;;;;25.55;43.13;100541.85;179693;1266;45898;-63
2023/06/12 11:51:08;;;;;;;6.20;2.40;;;;;;;25.69;43.97;100543.19;179445;1263;46180;-63
2023/06/12 11:55:17;;;;;;;2.50;1.80;;;;;;;25.39;43.83;100541.20;179662;1265;45263;-63
2023/06/12 11:59:48;;;;;;;6.00;2.70;;;;;;;25.08;46.95;100541.31;179108;1264;58971;-63
2023/06/12 12:03:58;;;;;;;4.10;2.50;;;;;;;24.87;46.97;100537.55;179707;1264;46195;-64
2023/06/12 12:08:03;;;;;;;6.70;3.00;;;;;;;24.92;45.77;100536.11;179648;1263;46134;-63
2023/06/12 12:12:10;;;;;;;6.20;2.50;;;;;;;24.96;44.82;100530.65;179656;1263;44747;-63
2023/06/12 12:16:13;;;;;;;3.20;2.70;;;;;;;25.19;45.59;100520.42;179761;1264;45949;-63
2023/06/12 12:20:22;;;;;;;2.90;2.60;;;;;;;25.48;44.32;100521.23;179702;1264;58418;-63
2023/06/12 12:24:38;;;;;;;4.90;2.70;;;;;;;25.70;42.55;100515.44;180050;1260;44731;-63
2023/06/12 12:28:43;;;;;;;2.60;1.80;;;;;;;25.75;42.82;100509.79;180117;1260;46038;-63
2023/06/12 12:32:50;;;;;;;4.70;2.10;;;;;;;25.89;42.57;100506.95;180095;1260;43745;-63
2023/06/12 12:36:55;;;;;;;7.30;2.20;;;;;;;26.11;41.58;100496.11;180164;1259;46009;-64
2023/06/12 12:41:02;;;;;;;4.90;2.20;;;;;;;26.21;42.37;100490.15;180586;1260;58220;-63
2023/06/12 12:45:09;;;;;;;13.10;4.00;;;;;;;26.14;43.35;100487.16;180496;1258;46611;-63
2023/06/12 12:49:13;;;;;;;4.60;2.60;;;;;;;26.18;44.16;100484.07;180027;1260;45015;-63
2023/06/12 12:53:17;;;;;;;;;;;;;;;25.96;44.10;100485.75;180079;1259;43769;-63
2023/06/12 12:57:21;;;;;;;3.70;2.10;;;;;;;25.60;43.84;100488.98;180239;1259;44425;-63
2023/06/12 13:01:24;;;;;;;2.90;1.90;;;;;;;25.32;45.36;100484.95;180432;1259;58778;-64
2023/06/12 13:05:31;;;;;;;4.30;2.60;;;;;;;25.32;43.44;100477.87;180750;1259;46022;-64
2023/06/12 13:09:35;;;;;;;3.80;2.70;;;;;;;25.54;44.13;100472.09;180728;1260;45961;-65
2023/06/12 13:13:38;;;;;;;9.90;2.70;;;;;;;25.77;42.03;100467.95;180638;1259;44557;-65
2023/06/12 13:17:42;;;;;;;5.30;2.00;;;;;;;26.02;42.62;100463.23;180811;1259;43754;-65
2023/06/12 13:21:47;;;;;;;;;;;;;;;26.19;42.03;100461.33;180575;1260;58656;-64
2023/06/12 13:25:54;;;;;;;4.90;2.10;;;;;;;26.29;40.83;100455.69;180829;1259;43327;-63
2023/06/12 13:30:00;;;;;;;5.40;3.40;;;;;;;26.26;40.91;100450.80;180222;1259;43604;-67
2023/06/12 13:35:09;;;;;;;7.80;3.30;;;;;;;26.42;41.98;100449.14;180248;1260;44945;-67
2023/06/12 13:39:13;;;;;;;2.80;1.80;;;;;;;26.43;40.36;100445.14;180195;1258;45977;-66
2023/06/12 13:43:30;;;;;;;2.10;2.00;;;;;;;26.51;39.08;100439.16;180150;1260;60107;-65
2023/06/12 13:47:36;;;;;;;3.20;2.10;;;;;;;26.57;40.27;100439.39;180053;1260;45967;-66
2023/06/12 13:51:40;;;;;;;2.90;2.10;;;;;;;26.63;39.98;100432.69;180185;1260;46222;-67
2023/06/12 13:56:12;;;;;;;3.00;2.60;;;;;;;26.45;39.97;100434.45;180318;1258;43666;-67
2023/06/12 14:00:17;;;;;;;2.90;2.00;;;;;;;26.21;40.97;100432.83;180230;1258;44724;-67
2023/06/12 14:04:21;;;;;;;1.70;1.60;;;;;;;26.09;41.40;100430.70;180134;1259;58813;-66
2023/06/12 14:08:38;;;;;;;;;;;;;;;25.97;43.00;100429.91;180137;1259;45359;-66
2023/06/12 14:12:44;;;;;;;8.20;2.10;;;;;;;25.93;43.57;100427.10;180253;1259;44452;-66
2023/06/12 14:16:48;;;;;;;3.80;1.90;;;;;;;26.13;43.25;100420.85;180144;1259;43737;-66
2023/06/12 14:20:54;;;;;;;4.20;2.60;;;;;;;26.37;40.56;100415.95;180293;1260;45909;-68
2023/06/12 14:25:04;;;;;;;3.60;2.10;;;;;;;26.55;40.14;100409.20;180145;1260;58242;-66
2023/06/12 14:29:11;;;;;;;6.50;2.50;;;;;;;26.76;40.56;100409.35;180187;1259;43881;-66
2023/06/12 14:34:06;;;;;;;9.70;2.60;;;;;;;26.78;38.81;100402.98;180284;1260;43634;-65
2023/06/12 14:38:10;;;;;;;3.50;2.30;;;;;;;26.88;38.53;100407.03;180065;1262;46108;-66
2023/06/12 14:42:16;;;;;;;3.00;1.80;;;;;;;26.98;38.76;100404.63;179775;1259;388174;-66
2023/06/12 14:46:20;;;;;;;2.30;1.80;;;;;;;27.00;38.85;100401.27;180122;1259;60583;-66
2023/06/12 14:50:26;;;;;;;26.60;3.60;;;;;;;26.96;37.82;100398.78;180130;1259;45109;-66
2023/06/12 14:54:29;;;;;;;2.70;1.90;;;;;;;26.97;37.28;100392.08;180006;1259;43916;-66
2023/06/12 14:58:33;;;;;;;3.50;2.10;;;;;;;26.93;37.35;100395.00;180034;1260;43947;-66
2023/06/12 15:03:03;;;;;;;2.40;1.70;;;;;;;26.93;36.79;100390.51;180058;1259;46021;-67
2023/06/12 15:07:07;;;;;;;2.20;1.30;;;;;;;27.06;37.99;100382.66;180218;1259;58004;-66
2023/06/12 15:11:11;;;;;;;9.30;2.90;;;;;;;27.17;39.14;100375.11;180199;1262;45983;-66
2023/06/12 15:15:22;;;;;;;4.90;1.80;;;;;;;27.12;38.95;100375.55;179925;1258;43611;-66
2023/06/12 15:19:31;;;;;;;2.50;2.10;;;;;;;27.03;37.11;100370.91;180161;1258;45036;-66
2023/06/12 15:23:35;;;;;;;2.30;1.50;;;;;;;26.85;37.25;100370.03;180030;1259;44957;-66
2023/06/12 15:27:40;;;;;;;2.00;1.70;;;;;;;26.76;38.05;100370.23;180168;1260;58310;-66
2023/06/12 15:31:46;;;;;;;4.20;2.70;;;;;;;26.76;38.12;100366.95;180046;1259;45939;-65
2023/06/12 15:36:14;;;;;;;2.10;1.30;;;;;;;26.74;36.97;100365.05;180083;1258;45980;-66
2023/06/12 15:40:17;;;;;;;2.80;2.20;;;;;;;26.77;36.78;100360.44;180141;1259;46050;-66
2023/06/12 15:44:21;;;;;;;2.40;1.50;;;;;;;26.82;38.07;100361.39;180234;1259;45920;-66
2023/06/12 15:48:28;;;;;;;5.00;1.90;;;;;;;26.64;37.28;100359.64;180355;1259;58121;-72
2023/06/12 15:52:33;;;;;;;5.00;2.80;;;;;;;26.53;37.12;100355.21;180403;1260;43824;-65
2023/06/12 15:56:37;;;;;;;4.30;2.20;;;;;;;26.49;37.69;100354.39;180279;1258;45900;-65
2023/06/12 16:00:42;;;;;;;3.90;2.10;;;;;;;26.42;36.35;100350.09;180235;1258;44751;-67
2023/06/12 16:04:45;;;;;;;4.00;1.90;;;;;;;26.37;36.97;100347.46;180182;1259;44584;-66
2023/06/12 16:08:49;;;;;;;4.20;1.50;;;;;;;26.24;36.67;100348.79;180264;1259;58418;-66
2023/06/12 16:12:53;;;;;;;3.00;1.80;;;;;;;26.08;35.81;100349.66;180042;1259;44753;-65
2023/06/12 16:16:58;;;;;;;3.80;2.40;;;;;;;26.07;36.30;100346.33;180119;1259;45968;-66
2023/06/12 16:21:05;;;;;;;7.30;2.30;;;;;;;26.13;37.09;100343.70;180152;1258;46047;-65
2023/06/12 16:25:09;;;;;;;4.30;1.50;;;;;;;26.17;37.65;100344.98;180078;1259;46087;-65
2023/06/12 16:29:13;;;;;;;4.80;1.30;;;;;;;26.09;37.35;100342.77;180044;1258;58906;-64
2023/06/12 16:33:17;;;;;;;5.60;2.10;;;;;;;25.91;37.42;100344.52;180239;1258;46239;-65
2023/06/12 16:37:47;;;;;;;3.50;1.50;;;;;;;25.59;37.64;100344.53;180033;1260;43709;-65
2023/06/12 16:41:51;;;;;;;5.40;1.90;;;;;;;25.37;39.03;100341.42;180250;1260;44395;-62
2023/06/12 16:46:20;;;;;;;3.70;1.60;;;;;;;25.22;38.42;100344.87;180352;1259;44982;-62
2023/06/12 16:50:24;;;;;;;2.40;1.90;;;;;;;25.07;38.79;100349.71;180391;1259;57979;-63
2023/06/12 16:54:31;;;;;;;;;;;;;;;24.89;39.80;100346.19;180300;1259;45950;-62
2023/06/12 16:58:36;;;;;;;2.30;1.60;;;;;;;24.71;40.42;100341.56;180293;1259;44616;-64
2023/06/12 17:02:39;;;;;;;4.10;2.40;;;;;;;24.56;41.39;100347.56;180271;1260;45851;-63
2023/06/12 17:06:44;;;;;;;7.10;2.10;;;;;;;24.42;39.75;100344.51;180344;1259;43852;-63
2023/06/12 17:11:10;;;;;;;2.90;1.70;;;;;;;24.30;40.75;100348.15;180281;1259;58980;-63
2023/06/12 17:15:13;;;;;;;1.70;1.40;;;;;;;24.11;39.76;100346.18;180208;1259;43565;-63
2023/06/12 17:19:19;;;;;;;2.80;1.30;;;;;;;23.98;40.58;100343.71;180419;1258;43555;-62
2023/06/12 17:23:39;;;;;;;5.40;2.00;;;;;;;23.88;41.58;100342.74;180383;1258;43653;-61
2023/06/12 17:27:43;;;;;;;2.10;1.60;;;;;;;23.74;41.80;100344.14;180378;1258;43820;-62
2023/06/12 17:31:46;;;;;;;2.20;1.70;;;;;;;23.61;41.48;100341.30;180460;1259;58690;-63
2023/06/12 17:35:53;;;;;;;10.30;2.10;;;;;;;23.48;41.50;100342.34;180356;1258;44616;-62
2023/06/12 17:39:57;;;;;;;2.60;1.70;;;;;;;23.33;42.07;100340.48;180489;1258;43582;-62
2023/06/12 17:44:02;;;;;;;2.50;1.80;;;;;;;23.20;42.80;100341.73;180325;1258;45961;-62
2023/06/12 17:48:35;;;;;;;6.60;2.30;;;;;;;23.07;43.97;100348.82;180402;1259;44927;-62
2023/06/12 17:52:39;;;;;;;8.30;1.80;;;;;;;22.91;44.88;100350.64;180663;1258;58728;-62
2023/06/12 17:56:45;;;;;;;4.50;1.90;;;;;;;22.76;45.54;100348.60;180806;1259;43754;-63
2023/06/12 18:00:52;;;;;;;2.60;1.20;;;;;;;22.63;45.77;100348.88;180689;1259;45050;-63
2023/06/12 18:04:57;;;;;;;10.70;1.60;;;;;;;22.50;45.68;100350.23;180556;1258;43701;-62
2023/06/12 18:09:01;;;;;;;5.10;1.50;;;;;;;22.37;45.56;100343.96;180457;1257;43535;-62
2023/06/12 18:13:19;;;;;;;1.80;1.70;;;;;;;22.25;44.88;100346.91;180416;1258;59139;-62
2023/06/12 18:17:23;;;;;;;1.90;1.50;;;;;;;22.11;45.53;100340.84;180338;1259;45608;-63
2023/06/12 18:21:26;;;;;;;2.40;1.50;;;;;;;21.98;45.76;100345.94;180254;1258;43921;-62
2023/06/12 18:25:30;;;;;;;3.40;1.40;;;;;;;21.82;45.99;100347.64;180292;1260;45996;-62
2023/06/12 18:29:34;;;;;;;3.70;1.90;;;;;;;21.65;46.29;100341.98;180296;1258;45846;-62
2023/06/12 18:33:39;;;;;;;8.20;2.30;;;;;;;21.50;46.81;100342.48;180376;1259;58685;-62
2023/06/12 18:37:42;;;;;;;7.70;2.10;;;;;;;21.36;46.54;100339.16;180245;1258;44671;-63
2023/06/12 18:41:45;;;;;;;3.40;1.80;;;;;;;21.22;46.83;100339.55;180212;1259;43881;-62
2023/06/12 18:45:52;;;;;;;7.50;3.00;;;;;;;21.07;47.43;100340.33;180345;1259;45913;-63
2023/06/12 18:49:55;;;;;;;3.20;2.00;;;;;;;20.93;47.33;100344.73;180298;1259;44919;-64
2023/06/12 18:54:00;;;;;;;4.30;2.30;;;;;;;20.76;47.08;100341.08;180169;1259;57942;-62
2023/06/12 18:58:10;;;;;;;4.20;2.30;;;;;;;20.58;47.09;100338.69;180209;1258;45881;-63
2023/06/12 19:02:14;;;;;;;3.20;2.20;;;;;;;20.44;47.26;100347.01;180147;1259;44792;-64
2023/06/12 19:06:18;;;;;;;3.80;1.90;;;;;;;20.27;47.51;100348.88;180011;1260;44695;-63
2023/06/12 19:10:27;;;;;;;5.70;2.70;;;;;;;20.08;47.74;100348.30;180162;1259;46089;-64
2023/06/12 19:14:31;;;;;;;5.30;3.30;;;;;;;19.92;47.97;100356.80;180290;1260;58429;-61
2023/06/12 19:18:34;;;;;;;4.50;2.20;;;;;;;19.78;48.80;100358.10;180022;1259;43666;-60
2023/06/12 19:22:39;;;;;;;3.20;2.30;;;;;;;19.64;49.02;100363.34;179961;1259;45922;-62
2023/06/12 19:26:42;;;;;;;5.90;2.50;;;;;;;19.53;48.83;100372.21;180192;1259;43780;-62
2023/06/12 19:30:46;;;;;;;5.60;2.10;;;;;;;19.42;49.13;100371.54;180231;1258;43914;-62
2023/06/12 19:34:49;;;;;;;4.30;2.30;;;;;;;19.32;49.57;100373.44;180198;1258;57946;-63
2023/06/12 19:38:54;;;;;;;7.50;3.60;;;;;;;19.21;49.71;100377.36;180065;1258;47446;-63
2023/06/12 19:42:58;;;;;;;3.60;2.20;;;;;;;19.11;49.97;100380.21;180103;1259;44550;-62
2023/06/12 19:47:07;;;;;;;4.70;2.10;;;;;;;18.99;50.17;100380.28;179988;1260;44764;-62
2023/06/12 19:51:11;;;;;;;5.20;3.20;;;;;;;18.89;50.59;100383.02;180175;1258;46003;-62
2023/06/12 19:55:17;;;;;;;4.00;3.60;;;;;;;18.79;50.95;100382.17;180647;1258;59127;-63